sensor_id;sensor_type;location;lat;lon;timestamp;P1;durP1;ratioP1;P2;durP2;ratioP2
40591;SDS011;26301;42.832;23.918;2022-10-12T00:01:42;14.25;;;11.15;;
40591;SDS011;26301;42.832;23.918;2022-10-12T00:04:07;12.30;;;10.95;;
40591;SDS011;26301;42.832;23.918;2022-10-12T00:06:33;13.88;;;10.80;;
40591;SDS011;26301;42.832;23.918;2022-10-12T00:08:59;15.02;;;10.45;;
40591;SDS011;26301;42.832;23.918;2022-10-12T00:11:26;13.75;;;10.20;;
40591;SDS011;26301;42.832;23.918;2022-10-12T00:13:53;14.35;;;10.65;;
40591;SDS011;26301;42.832;23.918;2022-10-12T00:16:20;13.55;;;9.55;;
40591;SDS011;26301;42.832;23.918;2022-10-12T00:18:51;11.43;;;10.23;;
40591;SDS011;26301;42.832;23.918;2022-10-12T00:21:21;13.40;;;9.75;;
40591;SDS011;26301;42.832;23.918;2022-10-12T00:23:47;12.82;;;9.07;;
40591;SDS011;26301;42.832;23.918;2022-10-12T00:26:17;12.95;;;9.48;;
40591;SDS011;26301;42.832;23.918;2022-10-12T00:28:45;13.80;;;10.20;;
40591;SDS011;26301;42.832;23.918;2022-10-12T00:31:13;13.80;;;10.27;;
40591;SDS011;26301;42.832;23.918;2022-10-12T00:33:43;15.05;;;10.85;;
40591;SDS011;26301;42.832;23.918;2022-10-12T00:36:13;13.90;;;9.88;;
40591;SDS011;26301;42.832;23.918;2022-10-12T00:38:44;15.77;;;10.82;;
40591;SDS011;26301;42.832;23.918;2022-10-12T00:41:11;15.25;;;10.15;;
40591;SDS011;26301;42.832;23.918;2022-10-12T00:43:38;14.60;;;9.88;;
40591;SDS011;26301;42.832;23.918;2022-10-12T00:46:10;16.52;;;11.27;;
40591;SDS011;26301;42.832;23.918;2022-10-12T00:51:43;11.85;;;10.13;;
40591;SDS011;26301;42.832;23.918;2022-10-12T00:54:15;13.98;;;10.32;;
40591;SDS011;26301;42.832;23.918;2022-10-12T00:59:15;13.82;;;9.13;;
40591;SDS011;26301;42.832;23.918;2022-10-12T01:01:50;13.98;;;10.00;;
40591;SDS011;26301;42.832;23.918;2022-10-12T01:04:16;13.75;;;10.32;;
40591;SDS011;26301;42.832;23.918;2022-10-12T01:06:42;12.40;;;10.73;;
40591;SDS011;26301;42.832;23.918;2022-10-12T01:09:08;12.27;;;10.00;;
40591;SDS011;26301;42.832;23.918;2022-10-12T01:11:34;13.50;;;10.55;;
40591;SDS011;26301;42.832;23.918;2022-10-12T01:13:59;12.43;;;10.15;;
40591;SDS011;26301;42.832;23.918;2022-10-12T01:16:33;14.38;;;10.73;;
40591;SDS011;26301;42.832;23.918;2022-10-12T01:21:45;13.63;;;9.68;;
40591;SDS011;26301;42.832;23.918;2022-10-12T01:33:01;15.68;;;10.98;;
40591;SDS011;26301;42.832;23.918;2022-10-12T01:36:03;11.70;;;9.90;;
40591;SDS011;26301;42.832;23.918;2022-10-12T01:41:26;13.30;;;10.63;;
40591;SDS011;26301;42.832;23.918;2022-10-12T01:43:57;15.00;;;10.52;;
40591;SDS011;26301;42.832;23.918;2022-10-12T01:48:51;13.40;;;11.43;;
40591;SDS011;26301;42.832;23.918;2022-10-12T01:54:15;16.55;;;10.90;;
40591;SDS011;26301;42.832;23.918;2022-10-12T02:00:03;14.20;;;10.50;;
40591;SDS011;26301;42.832;23.918;2022-10-12T02:02:32;13.10;;;11.00;;
40591;SDS011;26301;42.832;23.918;2022-10-12T02:13:53;16.23;;;12.48;;
40591;SDS011;26301;42.832;23.918;2022-10-12T02:16:28;20.15;;;12.95;;
40591;SDS011;26301;42.832;23.918;2022-10-12T02:19:00;16.80;;;13.25;;
40591;SDS011;26301;42.832;23.918;2022-10-12T02:21:31;17.83;;;13.15;;
40591;SDS011;26301;42.832;23.918;2022-10-12T02:24:00;20.13;;;13.43;;
40591;SDS011;26301;42.832;23.918;2022-10-12T02:26:30;20.77;;;13.43;;
40591;SDS011;26301;42.832;23.918;2022-10-12T02:28:59;16.60;;;13.05;;
40591;SDS011;26301;42.832;23.918;2022-10-12T02:31:30;17.92;;;13.63;;
40591;SDS011;26301;42.832;23.918;2022-10-12T02:34:10;17.55;;;14.00;;
40591;SDS011;26301;42.832;23.918;2022-10-12T02:42:15;21.10;;;13.90;;
40591;SDS011;26301;42.832;23.918;2022-10-12T02:44:45;20.87;;;14.20;;
40591;SDS011;26301;42.832;23.918;2022-10-12T02:47:12;22.00;;;15.68;;
40591;SDS011;26301;42.832;23.918;2022-10-12T02:49:41;20.92;;;13.45;;
40591;SDS011;26301;42.832;23.918;2022-10-12T02:52:09;20.20;;;15.15;;
40591;SDS011;26301;42.832;23.918;2022-10-12T02:54:36;19.85;;;14.85;;
40591;SDS011;26301;42.832;23.918;2022-10-12T02:57:02;18.35;;;13.55;;
40591;SDS011;26301;42.832;23.918;2022-10-12T02:59:28;19.15;;;14.23;;
40591;SDS011;26301;42.832;23.918;2022-10-12T03:01:54;18.08;;;14.27;;
40591;SDS011;26301;42.832;23.918;2022-10-12T03:04:20;18.83;;;14.25;;
40591;SDS011;26301;42.832;23.918;2022-10-12T03:06:46;18.35;;;14.25;;
40591;SDS011;26301;42.832;23.918;2022-10-12T03:09:12;18.80;;;14.18;;
40591;SDS011;26301;42.832;23.918;2022-10-12T03:11:38;17.58;;;14.32;;
40591;SDS011;26301;42.832;23.918;2022-10-12T03:14:08;20.70;;;14.30;;
40591;SDS011;26301;42.832;23.918;2022-10-12T03:16:36;21.20;;;14.82;;
40591;SDS011;26301;42.832;23.918;2022-10-12T03:19:02;20.33;;;14.80;;
40591;SDS011;26301;42.832;23.918;2022-10-12T03:21:28;21.25;;;15.50;;
40591;SDS011;26301;42.832;23.918;2022-10-12T03:23:54;22.77;;;14.55;;
40591;SDS011;26301;42.832;23.918;2022-10-12T03:26:19;18.60;;;14.70;;
40591;SDS011;26301;42.832;23.918;2022-10-12T03:28:46;23.23;;;14.63;;
40591;SDS011;26301;42.832;23.918;2022-10-12T03:31:11;17.30;;;13.82;;
40591;SDS011;26301;42.832;23.918;2022-10-12T03:33:37;19.20;;;15.00;;
40591;SDS011;26301;42.832;23.918;2022-10-12T03:36:03;22.70;;;14.15;;
40591;SDS011;26301;42.832;23.918;2022-10-12T03:38:29;16.15;;;13.38;;
40591;SDS011;26301;42.832;23.918;2022-10-12T03:40:55;17.60;;;13.77;;
40591;SDS011;26301;42.832;23.918;2022-10-12T03:43:21;19.42;;;14.45;;
40591;SDS011;26301;42.832;23.918;2022-10-12T03:45:47;18.77;;;14.43;;
40591;SDS011;26301;42.832;23.918;2022-10-12T03:48:13;18.10;;;14.48;;
40591;SDS011;26301;42.832;23.918;2022-10-12T03:50:39;18.88;;;14.15;;
40591;SDS011;26301;42.832;23.918;2022-10-12T03:53:06;22.88;;;15.25;;
40591;SDS011;26301;42.832;23.918;2022-10-12T03:55:32;19.50;;;13.93;;
40591;SDS011;26301;42.832;23.918;2022-10-12T03:57:58;19.33;;;14.25;;
40591;SDS011;26301;42.832;23.918;2022-10-12T04:00:24;19.00;;;14.60;;
40591;SDS011;26301;42.832;23.918;2022-10-12T04:02:50;19.20;;;14.57;;
40591;SDS011;26301;42.832;23.918;2022-10-12T04:05:16;21.02;;;14.68;;
40591;SDS011;26301;42.832;23.918;2022-10-12T04:07:42;19.17;;;14.77;;
40591;SDS011;26301;42.832;23.918;2022-10-12T04:10:08;19.40;;;15.82;;
40591;SDS011;26301;42.832;23.918;2022-10-12T04:12:34;24.40;;;15.73;;
40591;SDS011;26301;42.832;23.918;2022-10-12T04:15:00;22.70;;;16.55;;
40591;SDS011;26301;42.832;23.918;2022-10-12T04:17:26;22.13;;;16.13;;
40591;SDS011;26301;42.832;23.918;2022-10-12T04:19:52;21.02;;;15.75;;
40591;SDS011;26301;42.832;23.918;2022-10-12T04:22:18;21.55;;;15.10;;
40591;SDS011;26301;42.832;23.918;2022-10-12T04:24:44;18.15;;;15.18;;
40591;SDS011;26301;42.832;23.918;2022-10-12T04:27:10;22.73;;;16.00;;
40591;SDS011;26301;42.832;23.918;2022-10-12T04:29:36;18.80;;;15.38;;
40591;SDS011;26301;42.832;23.918;2022-10-12T04:32:01;22.67;;;16.25;;
40591;SDS011;26301;42.832;23.918;2022-10-12T04:34:27;21.08;;;15.45;;
40591;SDS011;26301;42.832;23.918;2022-10-12T04:36:53;22.38;;;14.48;;
40591;SDS011;26301;42.832;23.918;2022-10-12T04:39:19;20.58;;;15.13;;
40591;SDS011;26301;42.832;23.918;2022-10-12T04:41:44;17.55;;;13.25;;
40591;SDS011;26301;42.832;23.918;2022-10-12T04:44:10;20.58;;;13.80;;
40591;SDS011;26301;42.832;23.918;2022-10-12T04:46:36;18.35;;;13.30;;
40591;SDS011;26301;42.832;23.918;2022-10-12T04:49:01;18.88;;;13.43;;
40591;SDS011;26301;42.832;23.918;2022-10-12T04:51:27;16.55;;;13.50;;
40591;SDS011;26301;42.832;23.918;2022-10-12T04:53:53;20.60;;;15.02;;
40591;SDS011;26301;42.832;23.918;2022-10-12T04:56:19;18.95;;;13.93;;
40591;SDS011;26301;42.832;23.918;2022-10-12T04:58:45;19.98;;;14.15;;
40591;SDS011;26301;42.832;23.918;2022-10-12T05:01:11;19.95;;;16.20;;
40591;SDS011;26301;42.832;23.918;2022-10-12T05:03:37;20.48;;;14.70;;
40591;SDS011;26301;42.832;23.918;2022-10-12T05:06:02;19.10;;;14.95;;
40591;SDS011;26301;42.832;23.918;2022-10-12T05:08:28;19.77;;;15.27;;
40591;SDS011;26301;42.832;23.918;2022-10-12T05:10:54;20.73;;;15.18;;
40591;SDS011;26301;42.832;23.918;2022-10-12T05:13:22;18.90;;;14.57;;
40591;SDS011;26301;42.832;23.918;2022-10-12T05:15:48;18.38;;;15.40;;
40591;SDS011;26301;42.832;23.918;2022-10-12T05:18:13;17.20;;;14.55;;
40591;SDS011;26301;42.832;23.918;2022-10-12T05:20:39;19.02;;;15.02;;
40591;SDS011;26301;42.832;23.918;2022-10-12T05:23:05;20.17;;;15.55;;
40591;SDS011;26301;42.832;23.918;2022-10-12T05:25:30;19.52;;;15.23;;
40591;SDS011;26301;42.832;23.918;2022-10-12T05:27:59;20.08;;;15.50;;
40591;SDS011;26301;42.832;23.918;2022-10-12T05:30:25;18.88;;;14.88;;
40591;SDS011;26301;42.832;23.918;2022-10-12T05:32:51;20.85;;;15.50;;
40591;SDS011;26301;42.832;23.918;2022-10-12T05:35:16;22.30;;;15.80;;
40591;SDS011;26301;42.832;23.918;2022-10-12T05:37:42;19.35;;;16.10;;
40591;SDS011;26301;42.832;23.918;2022-10-12T05:40:08;20.83;;;16.70;;
40591;SDS011;26301;42.832;23.918;2022-10-12T05:42:34;23.00;;;16.77;;
40591;SDS011;26301;42.832;23.918;2022-10-12T05:45:00;19.45;;;16.48;;
40591;SDS011;26301;42.832;23.918;2022-10-12T05:47:27;20.40;;;17.20;;
40591;SDS011;26301;42.832;23.918;2022-10-12T05:49:52;25.90;;;17.80;;
40591;SDS011;26301;42.832;23.918;2022-10-12T05:52:18;22.80;;;16.63;;
40591;SDS011;26301;42.832;23.918;2022-10-12T05:54:44;21.20;;;16.77;;
40591;SDS011;26301;42.832;23.918;2022-10-12T05:57:10;18.40;;;15.07;;
40591;SDS011;26301;42.832;23.918;2022-10-12T05:59:38;23.88;;;16.85;;
40591;SDS011;26301;42.832;23.918;2022-10-12T06:02:03;19.15;;;15.45;;
40591;SDS011;26301;42.832;23.918;2022-10-12T06:04:29;17.10;;;14.02;;
40591;SDS011;26301;42.832;23.918;2022-10-12T06:06:55;20.65;;;14.30;;
40591;SDS011;26301;42.832;23.918;2022-10-12T06:09:20;21.85;;;15.05;;
40591;SDS011;26301;42.832;23.918;2022-10-12T06:11:46;27.95;;;15.13;;
40591;SDS011;26301;42.832;23.918;2022-10-12T06:14:12;20.90;;;14.68;;
40591;SDS011;26301;42.832;23.918;2022-10-12T06:16:39;20.73;;;16.00;;
40591;SDS011;26301;42.832;23.918;2022-10-12T06:19:05;22.73;;;16.75;;
40591;SDS011;26301;42.832;23.918;2022-10-12T06:21:34;21.83;;;16.73;;
40591;SDS011;26301;42.832;23.918;2022-10-12T06:24:01;22.90;;;17.38;;
40591;SDS011;26301;42.832;23.918;2022-10-12T06:26:27;24.15;;;17.48;;
40591;SDS011;26301;42.832;23.918;2022-10-12T06:28:52;23.25;;;17.65;;
40591;SDS011;26301;42.832;23.918;2022-10-12T06:31:18;22.50;;;17.70;;
40591;SDS011;26301;42.832;23.918;2022-10-12T06:33:44;22.88;;;17.33;;
40591;SDS011;26301;42.832;23.918;2022-10-12T06:36:10;22.75;;;16.55;;
40591;SDS011;26301;42.832;23.918;2022-10-12T06:38:36;22.60;;;17.13;;
40591;SDS011;26301;42.832;23.918;2022-10-12T06:41:02;22.98;;;17.63;;
40591;SDS011;26301;42.832;23.918;2022-10-12T06:43:28;21.83;;;17.30;;
40591;SDS011;26301;42.832;23.918;2022-10-12T06:45:57;22.67;;;17.83;;
40591;SDS011;26301;42.832;23.918;2022-10-12T06:48:24;22.38;;;16.83;;
40591;SDS011;26301;42.832;23.918;2022-10-12T06:50:50;23.55;;;18.23;;
40591;SDS011;26301;42.832;23.918;2022-10-12T06:53:15;22.85;;;18.27;;
40591;SDS011;26301;42.832;23.918;2022-10-12T06:55:41;23.73;;;17.67;;
40591;SDS011;26301;42.832;23.918;2022-10-12T06:58:07;25.25;;;16.98;;
40591;SDS011;26301;42.832;23.918;2022-10-12T07:00:33;23.88;;;16.65;;
40591;SDS011;26301;42.832;23.918;2022-10-12T07:02:59;23.13;;;17.63;;
40591;SDS011;26301;42.832;23.918;2022-10-12T07:05:24;21.15;;;16.45;;
40591;SDS011;26301;42.832;23.918;2022-10-12T07:07:51;19.80;;;17.30;;
40591;SDS011;26301;42.832;23.918;2022-10-12T07:10:17;25.23;;;17.02;;
40591;SDS011;26301;42.832;23.918;2022-10-12T07:12:43;23.60;;;17.75;;
40591;SDS011;26301;42.832;23.918;2022-10-12T07:15:09;22.58;;;17.95;;
40591;SDS011;26301;42.832;23.918;2022-10-12T07:17:35;21.40;;;17.27;;
40591;SDS011;26301;42.832;23.918;2022-10-12T07:20:02;25.33;;;18.73;;
40591;SDS011;26301;42.832;23.918;2022-10-12T07:22:28;25.38;;;20.15;;
40591;SDS011;26301;42.832;23.918;2022-10-12T07:24:54;25.35;;;19.88;;
40591;SDS011;26301;42.832;23.918;2022-10-12T07:27:19;24.02;;;18.95;;
40591;SDS011;26301;42.832;23.918;2022-10-12T07:29:45;22.52;;;16.48;;
40591;SDS011;26301;42.832;23.918;2022-10-12T07:32:10;21.75;;;16.83;;
40591;SDS011;26301;42.832;23.918;2022-10-12T07:34:36;23.60;;;17.85;;
40591;SDS011;26301;42.832;23.918;2022-10-12T07:37:02;19.15;;;16.73;;
40591;SDS011;26301;42.832;23.918;2022-10-12T07:39:28;22.42;;;16.75;;
40591;SDS011;26301;42.832;23.918;2022-10-12T07:41:54;20.25;;;16.23;;
40591;SDS011;26301;42.832;23.918;2022-10-12T07:44:20;19.65;;;16.48;;
40591;SDS011;26301;42.832;23.918;2022-10-12T07:46:47;22.10;;;17.55;;
40591;SDS011;26301;42.832;23.918;2022-10-12T07:49:13;19.65;;;15.60;;
40591;SDS011;26301;42.832;23.918;2022-10-12T07:51:40;22.05;;;18.45;;
40591;SDS011;26301;42.832;23.918;2022-10-12T07:54:06;22.70;;;17.75;;
40591;SDS011;26301;42.832;23.918;2022-10-12T07:56:33;25.40;;;17.90;;
40591;SDS011;26301;42.832;23.918;2022-10-12T07:58:59;23.55;;;18.23;;
40591;SDS011;26301;42.832;23.918;2022-10-12T08:01:26;25.20;;;18.80;;
40591;SDS011;26301;42.832;23.918;2022-10-12T08:03:57;25.95;;;20.08;;
40591;SDS011;26301;42.832;23.918;2022-10-12T08:06:24;25.58;;;18.65;;
40591;SDS011;26301;42.832;23.918;2022-10-12T08:08:51;24.60;;;19.40;;
40591;SDS011;26301;42.832;23.918;2022-10-12T08:11:18;22.65;;;18.77;;
40591;SDS011;26301;42.832;23.918;2022-10-12T08:13:44;27.40;;;19.52;;
40591;SDS011;26301;42.832;23.918;2022-10-12T08:16:12;26.25;;;19.98;;
40591;SDS011;26301;42.832;23.918;2022-10-12T08:18:40;25.73;;;18.38;;
40591;SDS011;26301;42.832;23.918;2022-10-12T08:21:07;22.85;;;17.45;;
40591;SDS011;26301;42.832;23.918;2022-10-12T08:23:34;23.55;;;17.55;;
40591;SDS011;26301;42.832;23.918;2022-10-12T08:26:01;22.58;;;17.08;;
40591;SDS011;26301;42.832;23.918;2022-10-12T08:28:28;24.88;;;16.60;;
40591;SDS011;26301;42.832;23.918;2022-10-12T08:30:54;19.75;;;15.93;;
40591;SDS011;26301;42.832;23.918;2022-10-12T08:33:20;23.17;;;17.52;;
40591;SDS011;26301;42.832;23.918;2022-10-12T08:35:46;24.25;;;16.90;;
40591;SDS011;26301;42.832;23.918;2022-10-12T08:38:12;19.77;;;16.85;;
40591;SDS011;26301;42.832;23.918;2022-10-12T08:40:46;24.23;;;18.92;;
40591;SDS011;26301;42.832;23.918;2022-10-12T08:43:26;23.92;;;18.95;;
40591;SDS011;26301;42.832;23.918;2022-10-12T08:46:05;19.98;;;16.05;;
40591;SDS011;26301;42.832;23.918;2022-10-12T08:48:38;21.52;;;15.93;;
40591;SDS011;26301;42.832;23.918;2022-10-12T08:51:18;18.67;;;15.50;;
40591;SDS011;26301;42.832;23.918;2022-10-12T08:56:39;21.52;;;17.63;;
40591;SDS011;26301;42.832;23.918;2022-10-12T08:59:11;20.60;;;15.25;;
40591;SDS011;26301;42.832;23.918;2022-10-12T09:07:11;23.25;;;15.88;;
40591;SDS011;26301;42.832;23.918;2022-10-12T09:15:27;25.20;;;17.77;;
40591;SDS011;26301;42.832;23.918;2022-10-12T09:17:57;17.42;;;14.40;;
40591;SDS011;26301;42.832;23.918;2022-10-12T09:20:26;25.40;;;15.85;;
40591;SDS011;26301;42.832;23.918;2022-10-12T09:22:58;21.52;;;15.23;;
40591;SDS011;26301;42.832;23.918;2022-10-12T09:25:45;22.20;;;15.80;;
40591;SDS011;26301;42.832;23.918;2022-10-12T09:28:12;21.75;;;15.63;;
40591;SDS011;26301;42.832;23.918;2022-10-12T09:30:46;19.08;;;15.07;;
40591;SDS011;26301;42.832;23.918;2022-10-12T09:33:47;20.58;;;14.45;;
40591;SDS011;26301;42.832;23.918;2022-10-12T09:36:20;21.50;;;15.82;;
40591;SDS011;26301;42.832;23.918;2022-10-12T09:38:48;17.90;;;13.07;;
40591;SDS011;26301;42.832;23.918;2022-10-12T09:47:01;16.17;;;12.35;;
40591;SDS011;26301;42.832;23.918;2022-10-12T09:55:00;22.48;;;13.98;;
40591;SDS011;26301;42.832;23.918;2022-10-12T09:57:32;22.85;;;12.98;;
40591;SDS011;26301;42.832;23.918;2022-10-12T10:00:01;21.20;;;14.10;;
40591;SDS011;26301;42.832;23.918;2022-10-12T10:02:33;23.88;;;14.98;;
40591;SDS011;26301;42.832;23.918;2022-10-12T10:05:18;23.25;;;14.43;;
40591;SDS011;26301;42.832;23.918;2022-10-12T10:07:51;18.13;;;12.40;;
40591;SDS011;26301;42.832;23.918;2022-10-12T10:10:21;19.77;;;12.95;;
40591;SDS011;26301;42.832;23.918;2022-10-12T10:12:55;20.90;;;13.52;;
40591;SDS011;26301;42.832;23.918;2022-10-12T10:15:24;18.55;;;12.90;;
40591;SDS011;26301;42.832;23.918;2022-10-12T10:17:57;21.88;;;13.57;;
40591;SDS011;26301;42.832;23.918;2022-10-12T10:20:50;18.20;;;12.75;;
40591;SDS011;26301;42.832;23.918;2022-10-12T10:23:24;22.73;;;14.82;;
40591;SDS011;26301;42.832;23.918;2022-10-12T10:26:02;18.63;;;13.20;;
40591;SDS011;26301;42.832;23.918;2022-10-12T10:28:32;25.08;;;13.55;;
40591;SDS011;26301;42.832;23.918;2022-10-12T10:36:50;34.70;;;19.85;;
40591;SDS011;26301;42.832;23.918;2022-10-12T10:39:27;69.45;;;34.97;;
40591;SDS011;26301;42.832;23.918;2022-10-12T10:42:07;28.27;;;17.05;;
40591;SDS011;26301;42.832;23.918;2022-10-12T10:44:44;23.10;;;17.05;;
40591;SDS011;26301;42.832;23.918;2022-10-12T10:47:14;19.88;;;13.77;;
40591;SDS011;26301;42.832;23.918;2022-10-12T10:49:44;21.75;;;15.57;;
40591;SDS011;26301;42.832;23.918;2022-10-12T10:52:32;23.48;;;15.65;;
40591;SDS011;26301;42.832;23.918;2022-10-12T10:55:21;20.98;;;14.93;;
40591;SDS011;26301;42.832;23.918;2022-10-12T11:00:48;26.30;;;16.77;;
40591;SDS011;26301;42.832;23.918;2022-10-12T11:08:47;18.52;;;14.07;;
40591;SDS011;26301;42.832;23.918;2022-10-12T11:11:26;20.70;;;13.48;;
40591;SDS011;26301;42.832;23.918;2022-10-12T11:13:58;18.95;;;13.95;;
40591;SDS011;26301;42.832;23.918;2022-10-12T11:16:34;21.92;;;12.40;;
40591;SDS011;26301;42.832;23.918;2022-10-12T11:19:14;20.83;;;14.13;;
40591;SDS011;26301;42.832;23.918;2022-10-12T11:21:54;18.02;;;13.73;;
40591;SDS011;26301;42.832;23.918;2022-10-12T11:24:34;15.43;;;12.13;;
40591;SDS011;26301;42.832;23.918;2022-10-12T11:29:42;15.05;;;11.55;;
40591;SDS011;26301;42.832;23.918;2022-10-12T11:32:20;19.92;;;12.13;;
40591;SDS011;26301;42.832;23.918;2022-10-12T11:34:55;16.70;;;12.23;;
40591;SDS011;26301;42.832;23.918;2022-10-12T11:37:38;16.48;;;12.82;;
40591;SDS011;26301;42.832;23.918;2022-10-12T11:40:30;18.30;;;13.00;;
40591;SDS011;26301;42.832;23.918;2022-10-12T11:43:29;16.02;;;12.00;;
40591;SDS011;26301;42.832;23.918;2022-10-12T11:46:01;14.75;;;11.75;;
40591;SDS011;26301;42.832;23.918;2022-10-12T11:51:32;14.57;;;11.35;;
40591;SDS011;26301;42.832;23.918;2022-10-12T11:54:03;14.88;;;12.18;;
40591;SDS011;26301;42.832;23.918;2022-10-12T11:56:43;17.60;;;11.55;;
40591;SDS011;26301;42.832;23.918;2022-10-12T11:59:17;14.40;;;12.07;;
40591;SDS011;26301;42.832;23.918;2022-10-12T12:04:34;14.38;;;11.90;;
40591;SDS011;26301;42.832;23.918;2022-10-12T12:07:02;18.25;;;12.65;;
40591;SDS011;26301;42.832;23.918;2022-10-12T12:09:38;18.67;;;11.10;;
40591;SDS011;26301;42.832;23.918;2022-10-12T12:12:17;16.67;;;10.98;;
40591;SDS011;26301;42.832;23.918;2022-10-12T12:14:49;19.13;;;12.95;;
40591;SDS011;26301;42.832;23.918;2022-10-12T12:17:25;13.48;;;11.65;;
40591;SDS011;26301;42.832;23.918;2022-10-12T12:19:59;13.25;;;10.82;;
40591;SDS011;26301;42.832;23.918;2022-10-12T12:22:47;18.48;;;12.00;;
40591;SDS011;26301;42.832;23.918;2022-10-12T12:37:46;16.38;;;10.65;;
40591;SDS011;26301;42.832;23.918;2022-10-12T12:40:19;16.60;;;10.90;;
40591;SDS011;26301;42.832;23.918;2022-10-12T12:42:46;16.85;;;11.77;;
40591;SDS011;26301;42.832;23.918;2022-10-12T12:47:56;18.23;;;11.68;;
40591;SDS011;26301;42.832;23.918;2022-10-12T12:50:30;17.83;;;12.93;;
40591;SDS011;26301;42.832;23.918;2022-10-12T12:53:01;16.75;;;11.73;;
40591;SDS011;26301;42.832;23.918;2022-10-12T12:55:46;12.98;;;10.95;;
40591;SDS011;26301;42.832;23.918;2022-10-12T13:04:03;16.60;;;11.05;;
40591;SDS011;26301;42.832;23.918;2022-10-12T13:20:20;12.50;;;10.80;;
40591;SDS011;26301;42.832;23.918;2022-10-12T13:22:50;14.93;;;11.20;;
40591;SDS011;26301;42.832;23.918;2022-10-12T13:25:22;15.57;;;10.98;;
40591;SDS011;26301;42.832;23.918;2022-10-12T13:27:53;13.85;;;10.65;;
40591;SDS011;26301;42.832;23.918;2022-10-12T13:35:42;11.90;;;9.82;;
40591;SDS011;26301;42.832;23.918;2022-10-12T13:38:32;16.27;;;11.80;;
40591;SDS011;26301;42.832;23.918;2022-10-12T13:41:13;12.57;;;10.57;;
40591;SDS011;26301;42.832;23.918;2022-10-12T13:46:11;12.70;;;10.75;;
40591;SDS011;26301;42.832;23.918;2022-10-12T13:48:39;13.30;;;10.70;;
40591;SDS011;26301;42.832;23.918;2022-10-12T13:51:26;14.52;;;11.75;;
40591;SDS011;26301;42.832;23.918;2022-10-12T13:53:52;15.48;;;11.30;;
40591;SDS011;26301;42.832;23.918;2022-10-12T13:56:20;18.50;;;13.30;;
40591;SDS011;26301;42.832;23.918;2022-10-12T13:58:50;15.55;;;11.15;;
40591;SDS011;26301;42.832;23.918;2022-10-12T14:01:27;13.77;;;10.93;;
40591;SDS011;26301;42.832;23.918;2022-10-12T14:04:00;14.30;;;10.80;;
40591;SDS011;26301;42.832;23.918;2022-10-12T14:06:33;13.20;;;10.70;;
40591;SDS011;26301;42.832;23.918;2022-10-12T14:09:10;13.88;;;10.40;;
40591;SDS011;26301;42.832;23.918;2022-10-12T14:11:41;14.40;;;11.18;;
40591;SDS011;26301;42.832;23.918;2022-10-12T14:14:18;17.15;;;11.38;;
40591;SDS011;26301;42.832;23.918;2022-10-12T14:16:50;16.70;;;11.15;;
40591;SDS011;26301;42.832;23.918;2022-10-12T14:22:05;14.75;;;10.13;;
40591;SDS011;26301;42.832;23.918;2022-10-12T14:24:33;17.33;;;11.35;;
40591;SDS011;26301;42.832;23.918;2022-10-12T14:27:01;13.98;;;10.52;;
40591;SDS011;26301;42.832;23.918;2022-10-12T14:29:33;18.27;;;10.35;;
40591;SDS011;26301;42.832;23.918;2022-10-12T14:34:42;12.13;;;10.35;;
40591;SDS011;26301;42.832;23.918;2022-10-12T14:39:40;15.25;;;10.07;;
40591;SDS011;26301;42.832;23.918;2022-10-12T14:42:20;13.98;;;10.13;;
40591;SDS011;26301;42.832;23.918;2022-10-12T14:44:57;12.00;;;10.00;;
40591;SDS011;26301;42.832;23.918;2022-10-12T14:49:55;12.27;;;9.63;;
40591;SDS011;26301;42.832;23.918;2022-10-12T14:52:23;13.05;;;9.38;;
40591;SDS011;26301;42.832;23.918;2022-10-12T14:54:53;13.95;;;9.98;;
40591;SDS011;26301;42.832;23.918;2022-10-12T14:57:23;11.85;;;9.98;;
40591;SDS011;26301;42.832;23.918;2022-10-12T14:59:51;14.10;;;10.95;;
40591;SDS011;26301;42.832;23.918;2022-10-12T15:02:18;13.63;;;9.77;;
40591;SDS011;26301;42.832;23.918;2022-10-12T15:04:46;12.40;;;9.00;;
40591;SDS011;26301;42.832;23.918;2022-10-12T15:07:13;11.70;;;10.15;;
40591;SDS011;26301;42.832;23.918;2022-10-12T15:09:42;11.82;;;9.13;;
40591;SDS011;26301;42.832;23.918;2022-10-12T15:12:09;14.43;;;10.43;;
40591;SDS011;26301;42.832;23.918;2022-10-12T15:14:37;15.80;;;9.32;;
40591;SDS011;26301;42.832;23.918;2022-10-12T15:17:04;13.77;;;9.93;;
40591;SDS011;26301;42.832;23.918;2022-10-12T15:19:30;12.98;;;9.82;;
40591;SDS011;26301;42.832;23.918;2022-10-12T15:21:55;12.18;;;9.90;;
40591;SDS011;26301;42.832;23.918;2022-10-12T15:24:21;12.60;;;9.93;;
40591;SDS011;26301;42.832;23.918;2022-10-12T15:26:47;15.45;;;9.43;;
40591;SDS011;26301;42.832;23.918;2022-10-12T15:29:13;12.52;;;9.32;;
40591;SDS011;26301;42.832;23.918;2022-10-12T15:31:39;13.13;;;10.35;;
40591;SDS011;26301;42.832;23.918;2022-10-12T15:34:14;12.85;;;9.65;;
40591;SDS011;26301;42.832;23.918;2022-10-12T15:36:40;13.15;;;10.05;;
40591;SDS011;26301;42.832;23.918;2022-10-12T15:39:06;11.25;;;9.80;;
40591;SDS011;26301;42.832;23.918;2022-10-12T15:41:32;13.13;;;9.68;;
40591;SDS011;26301;42.832;23.918;2022-10-12T15:43:58;13.82;;;9.90;;
40591;SDS011;26301;42.832;23.918;2022-10-12T15:46:24;13.93;;;9.77;;
40591;SDS011;26301;42.832;23.918;2022-10-12T15:48:51;11.65;;;9.32;;
40591;SDS011;26301;42.832;23.918;2022-10-12T15:51:18;14.68;;;9.90;;
40591;SDS011;26301;42.832;23.918;2022-10-12T15:53:49;12.43;;;9.27;;
40591;SDS011;26301;42.832;23.918;2022-10-12T15:56:16;11.38;;;9.27;;
40591;SDS011;26301;42.832;23.918;2022-10-12T15:58:43;11.25;;;9.38;;
40591;SDS011;26301;42.832;23.918;2022-10-12T16:01:12;12.30;;;9.18;;
40591;SDS011;26301;42.832;23.918;2022-10-12T16:03:40;11.88;;;9.18;;
40591;SDS011;26301;42.832;23.918;2022-10-12T16:06:06;11.60;;;9.52;;
40591;SDS011;26301;42.832;23.918;2022-10-12T16:08:33;11.50;;;9.38;;
40591;SDS011;26301;42.832;23.918;2022-10-12T16:11:00;16.17;;;9.82;;
40591;SDS011;26301;42.832;23.918;2022-10-12T16:13:27;14.25;;;9.45;;
40591;SDS011;26301;42.832;23.918;2022-10-12T16:15:53;14.20;;;9.77;;
40591;SDS011;26301;42.832;23.918;2022-10-12T16:18:18;10.90;;;9.27;;
40591;SDS011;26301;42.832;23.918;2022-10-12T16:20:44;17.48;;;9.93;;
40591;SDS011;26301;42.832;23.918;2022-10-12T16:23:20;14.02;;;10.10;;
40591;SDS011;26301;42.832;23.918;2022-10-12T16:25:46;35.33;;;25.15;;
40591;SDS011;26301;42.832;23.918;2022-10-12T16:28:12;34.40;;;24.85;;
40591;SDS011;26301;42.832;23.918;2022-10-12T16:30:38;28.90;;;20.75;;
40591;SDS011;26301;42.832;23.918;2022-10-12T16:33:04;19.42;;;14.98;;
40591;SDS011;26301;42.832;23.918;2022-10-12T16:35:30;18.58;;;13.02;;
40591;SDS011;26301;42.832;23.918;2022-10-12T16:37:56;14.43;;;12.02;;
40591;SDS011;26301;42.832;23.918;2022-10-12T16:40:23;16.55;;;12.65;;
40591;SDS011;26301;42.832;23.918;2022-10-12T16:42:52;23.23;;;17.20;;
40591;SDS011;26301;42.832;23.918;2022-10-12T16:45:21;16.50;;;11.90;;
40591;SDS011;26301;42.832;23.918;2022-10-12T16:47:48;18.05;;;11.02;;